Time;durP1;ratioP1;P1;durP2;ratioP2;P2;SDS_P1;SDS_P2;PMS_P1;PMS_P2;Temp;Humidity;BMP_temperature;BMP_pressure;BME280_temperature;BME280_humidity;BME280_pressure;Samples;Min_cycle;Max_cycle;Signal;HPM_P1;HPM_P2
2023/08/08 00:01:52;;;;;;;5.20;2.90;;;;;;;16.59;69.32;98868.92;107233;1256;60081;-39
2023/08/08 00:04:20;;;;;;;5.00;2.80;;;;;;;16.57;69.33;98869.48;107236;1258;72602;-39
2023/08/08 00:06:47;;;;;;;3.40;2.60;;;;;;;16.61;69.28;98869.07;107286;1257;67595;-39
2023/08/08 00:09:15;;;;;;;3.30;2.80;;;;;;;16.67;68.78;98871.48;107348;1260;71393;-39
2023/08/08 00:11:43;;;;;;;3.20;2.90;;;;;;;16.63;68.64;98874.59;107327;1260;60347;-39
2023/08/08 00:14:11;;;;;;;5.60;3.20;;;;;;;16.57;68.71;98872.91;107662;1254;60512;-39
2023/08/08 00:16:38;;;;;;;5.40;3.20;;;;;;;16.53;68.82;98869.69;107638;1254;73816;-38
2023/08/08 00:19:06;;;;;;;4.70;3.10;;;;;;;16.49;68.85;98870.83;107669;1257;66616;-38
2023/08/08 00:21:33;;;;;;;4.30;3.20;;;;;;;16.44;69.02;98870.82;107622;1252;72664;-40
2023/08/08 00:24:01;;;;;;;4.60;3.00;;;;;;;16.44;69.12;98875.66;107609;1254;60428;-38
2023/08/08 00:26:29;;;;;;;5.20;3.10;;;;;;;16.44;69.11;98878.63;107668;1253;60265;-39
2023/08/08 00:28:57;;;;;;;4.60;3.00;;;;;;;16.42;69.13;98874.19;107630;1254;73858;-39
2023/08/08 00:31:24;;;;;;;7.30;3.20;;;;;;;16.38;69.12;98877.53;107636;1254;67607;-38
2023/08/08 00:33:52;;;;;;;6.30;3.30;;;;;;;16.33;69.16;98879.08;107494;1254;72670;-39
2023/08/08 00:36:19;;;;;;;4.00;2.80;;;;;;;16.28;69.35;98876.33;107634;1255;60540;-39
2023/08/08 00:38:48;;;;;;;4.40;3.40;;;;;;;16.25;69.32;98877.39;107677;1253;60367;-39
2023/08/08 00:41:16;;;;;;;4.00;3.00;;;;;;;16.20;69.32;98880.34;107592;1256;72588;-39
2023/08/08 00:43:44;;;;;;;3.90;2.90;;;;;;;16.15;69.41;98889.61;107683;1254;66280;-39
2023/08/08 00:46:11;;;;;;;4.20;3.00;;;;;;;16.13;69.45;98890.09;107641;1252;72653;-39
2023/08/08 00:48:39;;;;;;;6.70;3.20;;;;;;;16.15;69.49;98891.02;107498;1254;60387;-39
2023/08/08 00:51:06;;;;;;;4.20;3.20;;;;;;;16.10;69.46;98890.98;107414;1253;60369;-39
2023/08/08 00:53:34;;;;;;;6.70;3.50;;;;;;;16.05;69.63;98889.64;107702;1254;73883;-39
2023/08/08 00:56:02;;;;;;;7.70;3.60;;;;;;;16.03;69.67;98891.60;107508;1257;66332;-39
2023/08/08 00:58:29;;;;;;;6.50;3.10;;;;;;;16.01;69.65;98884.28;107491;1254;72715;-39
2023/08/08 01:00:59;;;;;;;5.10;3.60;;;;;;;16.07;69.69;98885.71;107672;1254;60418;-38
2023/08/08 01:03:29;;;;;;;6.60;3.50;;;;;;;16.12;69.52;98879.86;107723;1251;60415;-39
2023/08/08 01:06:26;;;;;;;5.00;3.20;;;;;;;16.14;69.43;98879.23;107621;1254;74296;-38
2023/08/08 01:08:57;;;;;;;3.70;3.30;;;;;;;16.19;69.32;98895.83;107453;1253;66583;-39
2023/08/08 01:11:25;;;;;;;8.10;3.30;;;;;;;16.16;69.39;98889.30;107477;1253;71436;-38
2023/08/08 01:13:53;;;;;;;6.10;3.40;;;;;;;16.13;69.28;98885.26;107266;1254;177116;-39
2023/08/08 01:18:08;;;;;;;3.80;3.00;;;;;;;16.19;69.24;98884.95;104116;1291;601537;-37
2023/08/08 01:20:37;;;;;;;4.40;3.10;;;;;;;16.14;69.18;98889.14;106585;1266;59228;-39
2023/08/08 01:23:12;;;;;;;6.20;2.90;;;;;;;16.08;69.35;98887.17;106601;1266;59131;-38
2023/08/08 01:25:40;;;;;;;4.90;3.40;;;;;;;16.00;69.50;98887.35;106574;1266;72283;-39
2023/08/08 01:28:08;;;;;;;5.00;3.30;;;;;;;15.92;69.77;98895.48;106633;1267;67569;-38
2023/08/08 01:30:35;;;;;;;4.40;3.40;;;;;;;15.84;69.94;98897.58;106705;1271;177921;-41
2023/08/08 01:33:06;;;;;;;3.90;3.00;;;;;;;15.79;70.12;98895.13;106734;1267;59310;-39
2023/08/08 01:35:39;;;;;;;4.90;3.30;;;;;;;15.81;70.40;98894.88;106729;1262;60120;-38
2023/08/08 01:38:21;;;;;;;5.60;3.30;;;;;;;15.87;70.33;98898.71;106758;1263;71115;-39
2023/08/08 01:40:49;;;;;;;7.40;3.30;;;;;;;15.93;70.18;98902.25;106683;1270;67597;-39
2023/08/08 01:43:17;;;;;;;7.30;3.20;;;;;;;15.98;70.00;98909.95;106758;1264;71461;-39
2023/08/08 01:45:44;;;;;;;4.60;2.80;;;;;;;16.05;69.75;98911.73;106770;1263;60560;-39
2023/08/08 01:48:12;;;;;;;3.80;2.80;;;;;;;16.13;69.38;98908.70;106768;1262;59393;-39
2023/08/08 01:50:40;;;;;;;3.40;2.70;;;;;;;16.18;69.15;98913.25;106804;1262;73033;-38
2023/08/08 01:53:07;;;;;;;3.70;2.80;;;;;;;16.22;68.83;98922.59;106819;1268;67629;-39
2023/08/08 01:55:35;;;;;;;5.70;3.00;;;;;;;16.23;68.74;98925.38;106754;1263;71490;-39
2023/08/08 01:58:03;;;;;;;3.40;2.80;;;;;;;16.22;68.69;98926.88;106720;1262;60085;-39
2023/08/08 02:00:30;;;;;;;4.90;2.90;;;;;;;16.22;68.67;98933.13;106659;1263;59879;-40
2023/08/08 02:02:58;;;;;;;6.20;3.00;;;;;;;16.22;68.46;98933.59;107620;1257;73050;-38
2023/08/08 02:05:26;;;;;;;4.40;2.70;;;;;;;16.23;68.36;98932.48;107617;1253;67588;-39
2023/08/08 02:07:54;;;;;;;4.60;3.10;;;;;;;16.23;68.42;98930.61;107471;1256;72711;-38
2023/08/08 02:10:22;;;;;;;5.00;2.60;;;;;;;16.22;68.36;98931.79;107492;1253;60080;-38
2023/08/08 02:12:51;;;;;;;3.20;2.70;;;;;;;16.23;68.32;98926.70;107166;1257;60114;-38
2023/08/08 02:15:19;;;;;;;4.10;2.50;;;;;;;16.23;68.26;98926.23;107566;1253;73342;-38
2023/08/08 02:17:47;;;;;;;4.00;2.80;;;;;;;16.23;68.16;98921.23;107504;1257;66971;-38
2023/08/08 02:20:15;;;;;;;5.50;2.60;;;;;;;16.25;67.95;98927.78;107604;1254;72687;-38
2023/08/08 02:22:42;;;;;;;3.60;2.70;;;;;;;16.26;67.54;98926.92;107552;1253;59354;-38
2023/08/08 02:25:10;;;;;;;3.90;2.60;;;;;;;16.25;67.31;98929.52;107381;1252;60010;-38
2023/08/08 02:27:37;;;;;;;3.40;2.70;;;;;;;16.22;67.09;98933.27;107471;1253;73138;-38
2023/08/08 02:30:09;;;;;;;3.70;2.40;;;;;;;16.19;66.78;98936.91;107425;1259;65957;-38
2023/08/08 02:32:36;;;;;;;4.90;3.00;;;;;;;16.16;66.82;98940.86;107357;1252;71797;-39
2023/08/08 02:35:05;;;;;;;3.60;2.60;;;;;;;16.14;66.98;98939.70;107452;1254;59532;-39
2023/08/08 02:37:32;;;;;;;3.90;2.70;;;;;;;16.11;67.02;98939.82;107585;1254;59472;-38
2023/08/08 02:40:00;;;;;;;3.50;2.80;;;;;;;16.12;67.14;98951.67;107394;1254;71611;-38
2023/08/08 02:42:28;;;;;;;3.00;2.50;;;;;;;16.15;67.47;98956.96;107602;1253;68351;-38
2023/08/08 02:44:56;;;;;;;5.90;2.90;;;;;;;16.10;67.85;98965.99;107548;1256;71474;-38
2023/08/08 02:47:24;;;;;;;3.80;3.10;;;;;;;15.96;68.23;98972.77;107523;1257;60078;-38
2023/08/08 02:49:52;;;;;;;5.50;3.00;;;;;;;15.75;68.72;98972.02;107263;1253;59506;-39
2023/08/08 02:52:21;;;;;;;4.70;2.90;;;;;;;15.58;69.31;98971.44;107342;1254;71824;-38
2023/08/08 02:54:48;;;;;;;3.40;3.10;;;;;;;15.47;69.86;98968.60;107247;1260;67895;-38
2023/08/08 02:57:16;;;;;;;3.40;3.00;;;;;;;15.39;70.32;98974.35;107261;1253;71470;-38
2023/08/08 02:59:44;;;;;;;3.10;2.80;;;;;;;15.30;70.76;98970.66;107371;1258;60055;-38
2023/08/08 03:02:11;;;;;;;5.60;3.40;;;;;;;15.22;71.08;98977.44;107306;1255;59394;-38
2023/08/08 03:04:40;;;;;;;4.00;2.90;;;;;;;15.14;71.41;98980.05;107488;1255;71767;-38
2023/08/08 03:07:08;;;;;;;4.30;3.10;;;;;;;15.13;71.59;98973.03;107409;1254;66797;-38
2023/08/08 03:09:36;;;;;;;6.30;3.20;;;;;;;15.16;71.74;98980.52;107319;1255;71458;-38
2023/08/08 03:12:05;;;;;;;4.50;3.40;;;;;;;15.16;71.82;98985.34;107337;1253;59678;-39
2023/08/08 03:14:33;;;;;;;7.90;3.00;;;;;;;15.14;72.00;98984.73;107422;1255;59737;-39
2023/08/08 03:17:01;;;;;;;3.90;3.10;;;;;;;15.11;72.09;98987.46;107586;1254;71823;-38
2023/08/08 03:19:29;;;;;;;3.90;3.10;;;;;;;15.11;72.27;98986.23;107516;1258;66286;-38
2023/08/08 03:21:58;;;;;;;5.70;3.00;;;;;;;15.18;72.32;98990.63;107538;1259;71216;-39
2023/08/08 03:24:26;;;;;;;3.30;2.80;;;;;;;15.30;72.08;98998.69;107542;1257;60671;-38
2023/08/08 03:26:54;;;;;;;5.60;2.90;;;;;;;15.35;71.89;98997.48;107391;1255;60051;-38
2023/08/08 03:29:22;;;;;;;4.50;3.20;;;;;;;15.38;71.70;99002.22;107570;1257;71932;-39
2023/08/08 03:31:50;;;;;;;4.20;3.00;;;;;;;15.41;71.60;99007.36;107335;1254;66645;-39
2023/08/08 03:34:18;;;;;;;4.50;3.20;;;;;;;15.44;71.61;99019.91;107517;1257;72678;-39
2023/08/08 03:36:46;;;;;;;3.00;2.60;;;;;;;15.46;71.62;99023.09;107290;1254;60574;-38
2023/08/08 03:39:14;;;;;;;3.00;2.70;;;;;;;15.49;71.69;99020.19;107113;1260;59882;-38
2023/08/08 03:41:42;;;;;;;4.50;2.90;;;;;;;15.52;71.88;99010.58;107175;1259;73124;-38
2023/08/08 03:44:09;;;;;;;5.00;3.30;;;;;;;15.56;72.06;99001.34;107274;1253;66486;-38
2023/08/08 03:46:36;;;;;;;3.90;3.20;;;;;;;15.65;72.17;98999.49;107246;1255;72823;-39
2023/08/08 03:49:04;;;;;;;4.10;3.40;;;;;;;15.70;72.28;98997.05;107303;1259;61677;-39
2023/08/08 03:51:32;;;;;;;4.20;2.60;;;;;;;15.76;72.31;98999.24;107216;1256;60032;-39
2023/08/08 03:54:00;;;;;;;5.30;3.00;;;;;;;15.85;72.23;99009.25;107288;1259;71793;-38
2023/08/08 03:56:27;;;;;;;3.80;3.20;;;;;;;15.87;72.28;99011.27;107427;1259;67595;-38
2023/08/08 03:58:56;;;;;;;4.10;3.20;;;;;;;15.83;72.44;99023.78;107383;1259;72947;-38
2023/08/08 04:01:24;;;;;;;4.20;3.30;;;;;;;15.84;72.64;99031.30;107318;1255;59733;-38
2023/08/08 04:03:51;;;;;;;3.90;3.00;;;;;;;15.87;72.87;99034.39;107363;1259;60061;-39
2023/08/08 04:06:19;;;;;;;3.10;2.60;;;;;;;15.93;73.07;99034.89;107428;1253;73064;-38
2023/08/08 04:08:47;;;;;;;3.90;3.40;;;;;;;15.99;73.28;99038.75;107498;1254;68057;-37
2023/08/08 04:11:14;;;;;;;4.10;3.50;;;;;;;16.01;73.48;99035.91;107343;1260;73320;-39
2023/08/08 04:13:42;;;;;;;4.20;3.20;;;;;;;16.04;73.62;99043.86;107275;1258;59583;-38
2023/08/08 04:16:09;;;;;;;3.20;2.80;;;;;;;16.07;73.89;99045.09;107202;1254;60038;-38
2023/08/08 04:18:37;;;;;;;4.20;3.00;;;;;;;16.13;74.02;99045.29;107336;1259;73066;-38
2023/08/08 04:21:04;;;;;;;4.10;3.10;;;;;;;16.23;74.22;99049.02;107327;1254;66071;-38
2023/08/08 04:23:32;;;;;;;3.10;2.60;;;;;;;16.30;74.29;99052.31;107294;1258;72745;-39
2023/08/08 04:25:59;;;;;;;5.30;2.70;;;;;;;16.38;74.30;99055.13;107329;1259;59640;-38
2023/08/08 04:28:27;;;;;;;3.50;2.70;;;;;;;16.44;74.37;99056.79;107386;1257;60145;-38
2023/08/08 04:30:54;;;;;;;3.20;2.60;;;;;;;16.55;74.39;99059.91;107497;1252;73086;-39
2023/08/08 04:33:22;;;;;;;3.20;2.90;;;;;;;16.67;74.21;99067.70;107497;1257;67584;-39
2023/08/08 04:35:49;;;;;;;5.00;3.00;;;;;;;16.74;73.95;99078.02;107399;1255;71763;-39
2023/08/08 04:38:17;;;;;;;3.50;2.70;;;;;;;16.79;73.62;99085.23;107414;1254;60080;-39
2023/08/08 04:40:45;;;;;;;3.50;3.00;;;;;;;16.79;73.34;99090.72;107579;1255;59673;-38
2023/08/08 04:43:12;;;;;;;3.30;2.90;;;;;;;16.84;73.46;99092.70;107599;1257;73052;-39
2023/08/08 04:45:40;;;;;;;4.50;3.30;;;;;;;16.91;73.11;99093.09;107460;1255;67588;-39
2023/08/08 04:48:08;;;;;;;4.70;3.60;;;;;;;16.96;73.04;99094.14;107574;1254;72734;-39
2023/08/08 04:50:35;;;;;;;3.90;3.60;;;;;;;17.00;73.15;99100.11;107528;1254;59670;-39
2023/08/08 04:53:03;;;;;;;5.90;3.60;;;;;;;17.07;73.42;99108.33;107535;1253;60080;-39
2023/08/08 04:55:31;;;;;;;4.20;3.40;;;;;;;17.17;73.38;99110.24;107526;1257;73058;-39
2023/08/08 04:57:58;;;;;;;4.60;3.50;;;;;;;17.29;72.98;99109.80;107440;1254;65433;-39
2023/08/08 05:00:26;;;;;;;4.80;3.60;;;;;;;17.35;72.57;99102.66;107407;1255;72742;-39
2023/08/08 05:02:54;;;;;;;4.00;3.50;;;;;;;17.42;72.68;99105.02;107408;1254;60087;-39
2023/08/08 05:05:21;;;;;;;4.10;3.50;;;;;;;17.50;72.07;99107.96;107411;1255;60054;-39
2023/08/08 05:07:49;;;;;;;3.90;3.00;;;;;;;17.56;71.69;99105.92;107551;1254;71794;-39
2023/08/08 05:10:17;;;;;;;7.40;3.70;;;;;;;17.62;71.83;99096.70;107477;1253;66954;-39
2023/08/08 05:12:45;;;;;;;4.30;3.60;;;;;;;17.66;71.69;99092.56;107478;1254;72869;-39
2023/08/08 05:15:12;;;;;;;4.00;3.60;;;;;;;17.73;72.02;99091.23;107354;1258;59577;-39
2023/08/08 05:17:40;;;;;;;5.00;3.30;;;;;;;17.79;72.07;99088.55;107337;1253;59994;-39
2023/08/08 05:20:09;;;;;;;6.30;3.00;;;;;;;17.87;71.61;99093.77;107342;1254;73185;-39
2023/08/08 05:22:37;;;;;;;4.00;3.00;;;;;;;17.92;70.95;99096.04;107496;1254;67563;-39
2023/08/08 05:25:05;;;;;;;3.50;3.10;;;;;;;17.95;71.10;99102.18;107443;1254;72721;-39
2023/08/08 05:27:34;;;;;;;6.80;3.10;;;;;;;17.98;71.26;99108.66;107637;1254;60394;-39
2023/08/08 05:30:02;;;;;;;4.80;3.70;;;;;;;18.03;71.08;99119.70;107527;1254;60854;-39
2023/08/08 05:32:30;;;;;;;4.00;3.00;;;;;;;18.09;70.36;99121.17;107547;1254;73842;-39
2023/08/08 05:35:00;;;;;;;3.30;3.00;;;;;;;18.12;69.95;99122.14;107467;1254;66273;-39
2023/08/08 05:37:28;;;;;;;3.40;2.80;;;;;;;18.12;69.48;99122.21;107469;1258;71728;-40
2023/08/08 05:39:55;;;;;;;4.90;2.70;;;;;;;18.11;69.38;99119.96;107451;1255;60111;-39
2023/08/08 05:42:23;;;;;;;3.40;2.90;;;;;;;18.11;69.46;99118.08;107427;1257;60985;-39
2023/08/08 05:44:51;;;;;;;6.00;3.20;;;;;;;18.12;69.18;99121.20;108017;1257;73879;-39
2023/08/08 05:47:18;;;;;;;2.90;2.50;;;;;;;18.16;68.98;99126.88;107403;1254;66305;-39
2023/08/08 05:49:46;;;;;;;4.80;2.90;;;;;;;18.19;68.85;99126.59;107434;1255;72770;-39
2023/08/08 05:52:13;;;;;;;5.40;3.30;;;;;;;18.21;69.17;99123.58;107513;1253;60426;-39
2023/08/08 05:54:41;;;;;;;4.80;2.70;;;;;;;18.22;68.94;99123.55;107486;1253;60412;-39
2023/08/08 05:57:09;;;;;;;5.50;3.20;;;;;;;18.24;68.92;99125.80;107452;1254;73942;-39
2023/08/08 05:59:36;;;;;;;3.90;2.90;;;;;;;18.24;69.44;99130.73;107422;1255;67639;-39
2023/08/08 06:02:04;;;;;;;3.60;2.80;;;;;;;18.29;69.38;99131.27;107458;1254;72721;-39
2023/08/08 06:04:32;;;;;;;5.40;3.00;;;;;;;18.36;68.71;99125.61;107457;1254;59939;-39
2023/08/08 06:07:00;;;;;;;3.80;2.70;;;;;;;18.41;69.05;99126.55;107425;1254;60089;-40
2023/08/08 06:09:28;;;;;;;3.30;3.00;;;;;;;18.49;69.57;99126.16;107482;1252;71999;-40
2023/08/08 06:11:55;;;;;;;5.80;3.10;;;;;;;18.55;69.58;99127.18;107485;1257;67906;-39
2023/08/08 06:14:23;;;;;;;3.40;2.90;;;;;;;18.65;68.65;99129.55;107369;1257;72737;-39
2023/08/08 06:16:51;;;;;;;3.40;3.10;;;;;;;18.73;68.04;99131.76;107324;1254;60503;-40
2023/08/08 06:19:18;;;;;;;4.00;3.40;;;;;;;18.79;68.30;99136.59;107322;1254;60423;-39
2023/08/08 06:21:46;;;;;;;4.10;3.60;;;;;;;18.81;68.31;99134.35;107434;1254;74229;-39
2023/08/08 06:24:14;;;;;;;4.10;3.60;;;;;;;18.84;68.30;99131.63;107439;1254;67203;-39
2023/08/08 06:26:41;;;;;;;4.90;3.30;;;;;;;18.87;67.97;99135.41;107463;1254;72662;-39
2023/08/08 06:29:09;;;;;;;3.60;3.10;;;;;;;18.93;68.24;99136.64;107408;1254;60993;-39
2023/08/08 06:31:37;;;;;;;4.80;3.60;;;;;;;18.99;67.95;99137.02;107467;1253;60317;-40
2023/08/08 06:34:05;;;;;;;4.90;2.70;;;;;;;19.01;67.18;99133.98;107558;1257;72901;-40
2023/08/08 06:36:33;;;;;;;3.60;3.10;;;;;;;19.03;67.31;99133.17;107402;1254;66434;-39
2023/08/08 06:39:00;;;;;;;3.70;2.70;;;;;;;19.02;66.62;99131.54;107465;1254;71119;-40
2023/08/08 06:41:28;;;;;;;3.70;3.00;;;;;;;19.03;66.62;99138.02;107474;1257;61678;-40
2023/08/08 06:43:56;;;;;;;5.50;3.40;;;;;;;19.08;66.51;99134.17;107473;1253;59676;-40
2023/08/08 06:46:24;;;;;;;3.60;3.10;;;;;;;19.14;66.84;99143.09;107438;1254;73161;-39
2023/08/08 06:48:56;;;;;;;4.40;3.70;;;;;;;19.19;66.92;99142.91;107476;1254;67919;-39
2023/08/08 06:51:25;;;;;;;3.80;2.90;;;;;;;19.22;66.54;99146.38;107458;1254;72715;-40
2023/08/08 06:53:52;;;;;;;3.10;2.80;;;;;;;19.23;66.04;99155.14;107529;1254;61672;-40
2023/08/08 06:56:22;;;;;;;;;;;;;;;19.25;65.40;99158.89;107596;1254;60412;-39
2023/08/08 06:58:50;;;;;;;3.00;2.70;;;;;;;19.25;65.70;99170.81;107532;1253;72923;-40
2023/08/08 07:01:18;;;;;;;3.40;2.80;;;;;;;19.24;65.54;99168.09;107506;1254;67894;-40
2023/08/08 07:03:46;;;;;;;3.50;2.80;;;;;;;19.27;65.59;99170.39;107582;1257;72732;-39
2023/08/08 07:06:17;;;;;;;3.30;2.90;;;;;;;19.26;65.48;99167.50;107443;1252;60550;-39
2023/08/08 07:08:45;;;;;;;4.70;2.90;;;;;;;19.23;65.70;99162.91;107441;1254;60323;-40
2023/08/08 07:11:12;;;;;;;3.30;2.40;;;;;;;19.24;65.55;99163.92;107500;1254;72699;-39
2023/08/08 07:13:40;;;;;;;3.90;2.50;;;;;;;19.26;65.36;99163.41;107471;1257;67605;-40
2023/08/08 07:16:08;;;;;;;4.10;3.00;;;;;;;19.26;65.51;99168.60;107414;1260;73189;-40
2023/08/08 07:18:37;;;;;;;6.10;3.00;;;;;;;19.26;65.83;99169.39;107415;1253;59620;-39
2023/08/08 07:21:05;;;;;;;3.10;2.60;;;;;;;19.29;66.39;99173.50;107549;1258;60380;-40
2023/08/08 07:23:33;;;;;;;3.60;2.40;;;;;;;19.32;66.33;99174.69;107487;1254;73863;-40
2023/08/08 07:26:01;;;;;;;3.00;2.50;;;;;;;19.35;66.20;99171.80;107357;1254;67588;-40
2023/08/08 07:28:28;;;;;;;2.80;2.40;;;;;;;19.42;65.87;99166.58;107341;1254;71434;-40
2023/08/08 07:30:56;;;;;;;7.10;2.80;;;;;;;19.46;65.93;99160.05;107312;1253;60549;-39
2023/08/08 07:33:24;;;;;;;3.10;2.80;;;;;;;19.48;65.79;99158.28;107425;1253;60506;-39
2023/08/08 07:35:51;;;;;;;3.30;2.80;;;;;;;19.51;65.96;99158.00;107377;1254;72644;-39
2023/08/08 07:38:19;;;;;;;6.50;3.00;;;;;;;19.55;65.95;99153.67;107516;1254;67117;-40
2023/08/08 07:40:48;;;;;;;5.00;2.40;;;;;;;19.60;65.51;99154.29;107363;1254;72731;-40
2023/08/08 07:43:16;;;;;;;7.70;2.50;;;;;;;19.69;65.17;99150.70;107380;1257;61706;-40
2023/08/08 07:45:46;;;;;;;2.70;2.40;;;;;;;19.81;65.03;99156.90;107352;1254;60393;-40
2023/08/08 07:48:21;;;;;;;4.50;2.70;;;;;;;19.84;63.58;99162.23;108525;1254;74008;-40
2023/08/08 07:50:48;;;;;;;3.80;2.70;;;;;;;19.85;63.54;99168.91;107266;1261;67574;-40
2023/08/08 07:53:16;;;;;;;3.20;2.50;;;;;;;19.91;64.03;99173.73;107504;1254;72656;-40
2023/08/08 07:55:44;;;;;;;5.00;2.50;;;;;;;20.02;63.61;99173.73;107415;1257;60303;-40
2023/08/08 07:58:11;;;;;;;2.40;2.20;;;;;;;20.14;63.62;99181.88;107375;1257;59104;-40
2023/08/08 08:00:39;;;;;;;3.50;2.40;;;;;;;20.26;62.75;99182.93;107505;1254;73967;-40
2023/08/08 08:03:07;;;;;;;2.70;2.40;;;;;;;20.42;62.74;99179.38;107393;1253;66957;-40
2023/08/08 08:05:35;;;;;;;4.10;2.50;;;;;;;20.57;61.69;99175.77;107457;1253;72690;-40
2023/08/08 08:08:04;;;;;;;2.60;2.40;;;;;;;20.67;60.70;99169.69;107439;1254;60406;-40
2023/08/08 08:10:35;;;;;;;3.50;2.40;;;;;;;20.76;60.13;99171.81;107256;1253;60429;-39
2023/08/08 08:13:03;;;;;;;2.40;2.20;;;;;;;20.85;60.35;99175.13;107390;1257;74205;-39
2023/08/08 08:15:31;;;;;;;2.80;1.80;;;;;;;20.93;59.07;99175.50;107378;1253;67980;-39
2023/08/08 08:17:59;;;;;;;3.10;1.80;;;;;;;20.93;58.77;99165.64;107287;1254;72667;-39
2023/08/08 08:20:27;;;;;;;3.60;2.10;;;;;;;20.94;59.06;99166.73;107297;1254;60497;-39
2023/08/08 08:22:54;;;;;;;2.40;2.20;;;;;;;20.92;59.55;99164.40;107396;1254;60374;-40
2023/08/08 08:25:22;;;;;;;2.90;2.20;;;;;;;20.97;59.61;99164.14;107564;1253;73820;-40
2023/08/08 08:27:49;;;;;;;2.30;2.10;;;;;;;21.07;59.29;99165.02;107409;1253;67817;-39
2023/08/08 08:30:18;;;;;;;5.00;1.90;;;;;;;21.20;59.08;99161.16;107510;1254;72789;-39
2023/08/08 08:32:46;;;;;;;1.80;1.40;;;;;;;21.38;58.11;99169.96;107498;1253;61940;-40
2023/08/08 08:35:14;;;;;;;1.70;1.60;;;;;;;21.56;57.26;99169.77;107573;1252;59758;-40
2023/08/08 08:37:41;;;;;;;3.90;1.70;;;;;;;21.68;56.09;99170.36;107431;1254;72605;-40
2023/08/08 08:40:10;;;;;;;2.50;1.80;;;;;;;21.76;56.99;99169.36;107371;1254;67588;-40
2023/08/08 08:42:38;;;;;;;2.80;1.40;;;;;;;21.83;54.71;99174.42;107430;1254;71460;-40
2023/08/08 08:45:06;;;;;;;2.10;1.50;;;;;;;21.84;54.06;99174.01;107365;1253;60374;-40
2023/08/08 08:47:34;;;;;;;2.20;1.60;;;;;;;21.83;54.83;99179.53;107477;1253;60225;-40
2023/08/08 08:50:03;;;;;;;1.70;1.50;;;;;;;21.81;54.68;99180.63;107484;1257;73860;-39
2023/08/08 08:52:31;;;;;;;1.90;1.60;;;;;;;21.78;55.92;99174.73;107570;1253;68228;-40
2023/08/08 08:54:59;;;;;;;2.40;1.40;;;;;;;21.78;55.24;99173.95;107427;1253;72785;-41
2023/08/08 08:57:27;;;;;;;1.30;1.20;;;;;;;21.78;53.61;99169.27;107489;1253;60389;-38
2023/08/08 08:59:54;;;;;;;2.20;1.70;;;;;;;21.79;54.07;99168.48;107564;1253;60304;-39
2023/08/08 09:02:22;;;;;;;2.80;1.50;;;;;;;21.77;54.53;99158.20;107453;1253;73859;-39
2023/08/08 09:04:50;;;;;;;1.80;1.50;;;;;;;21.78;55.11;99153.05;107217;1253;67588;-40
2023/08/08 09:07:19;;;;;;;2.80;1.40;;;;;;;21.84;54.53;99150.34;107271;1259;71470;-41
2023/08/08 09:09:46;;;;;;;3.20;1.50;;;;;;;21.92;54.82;99154.14;107511;1254;59619;-41
2023/08/08 09:12:14;;;;;;;1.90;1.40;;;;;;;22.01;54.62;99153.46;107440;1257;60310;-41
2023/08/08 09:14:43;;;;;;;2.30;1.40;;;;;;;22.09;53.57;99154.80;107282;1254;73983;-41
2023/08/08 09:17:15;;;;;;;1.40;1.30;;;;;;;22.20;53.00;99156.43;107498;1253;66780;-41
2023/08/08 09:19:44;;;;;;;1.20;1.10;;;;;;;22.34;53.05;99156.61;107479;1254;72699;-41
2023/08/08 09:22:12;;;;;;;1.80;1.30;;;;;;;22.45;51.69;99157.14;107610;1252;60284;-42
2023/08/08 09:24:41;;;;;;;1.10;1.00;;;;;;;22.54;52.03;99159.14;107213;1258;60313;-42
2023/08/08 09:27:09;;;;;;;2.90;1.30;;;;;;;22.63;51.51;99165.92;107539;1253;74015;-42
2023/08/08 09:29:37;;;;;;;2.00;1.50;;;;;;;22.69;51.71;99168.75;107524;1253;67171;-40
2023/08/08 09:32:07;;;;;;;3.70;1.50;;;;;;;22.69;51.37;99169.14;107466;1254;72722;-40
2023/08/08 09:34:35;;;;;;;1.50;1.20;;;;;;;22.66;51.75;99166.68;107410;1255;60323;-42
2023/08/08 09:37:03;;;;;;;2.50;1.40;;;;;;;22.62;51.65;99163.59;107380;1253;60544;-42
2023/08/08 09:39:31;;;;;;;3.40;1.40;;;;;;;22.60;51.66;99166.29;107421;1253;73824;-42
2023/08/08 09:42:01;;;;;;;1.50;1.20;;;;;;;22.58;51.47;99169.58;107412;1257;66309;-40
2023/08/08 09:44:29;;;;;;;2.00;1.40;;;;;;;22.56;51.88;99172.16;107372;1258;72762;-39
2023/08/08 09:46:57;;;;;;;1.40;1.20;;;;;;;22.54;51.35;99176.97;107293;1253;60179;-39
2023/08/08 09:49:25;;;;;;;3.10;1.20;;;;;;;22.52;50.84;99177.56;107047;1254;60771;-39
2023/08/08 09:51:53;;;;;;;1.10;1.00;;;;;;;22.48;49.96;99180.40;109218;1253;74410;-40
2023/08/08 09:54:21;;;;;;;2.20;1.10;;;;;;;22.43;50.27;99178.19;109090;1253;66788;-40
2023/08/08 09:56:49;;;;;;;1.90;1.40;;;;;;;22.42;50.24;99179.23;108900;1251;72782;-39
2023/08/08 09:59:18;;;;;;;1.60;1.30;;;;;;;22.42;51.07;99175.91;107505;1251;60329;-39
2023/08/08 10:01:45;;;;;;;1.80;1.20;;;;;;;22.44;51.18;99177.11;107452;1253;60307;-40
2023/08/08 10:04:13;;;;;;;2.30;1.30;;;;;;;22.49;50.60;99184.54;107496;1253;73885;-38
2023/08/08 10:06:41;;;;;;;2.50;1.70;;;;;;;22.55;50.84;99181.27;107283;1253;68045;-39
2023/08/08 10:09:09;;;;;;;2.50;1.40;;;;;;;22.59;51.32;99180.74;107352;1253;72710;-40
2023/08/08 10:11:36;;;;;;;1.70;1.30;;;;;;;22.62;51.73;99180.50;107374;1252;60374;-39
2023/08/08 10:14:04;;;;;;;3.20;1.70;;;;;;;22.63;52.19;99183.70;107276;1257;60154;-39
2023/08/08 10:16:33;;;;;;;2.40;1.50;;;;;;;22.66;53.06;99178.38;107314;1255;72566;-39
2023/08/08 10:19:02;;;;;;;2.20;1.60;;;;;;;22.69;52.34;99174.41;109304;1254;66378;-39
2023/08/08 10:21:34;;;;;;;2.00;1.80;;;;;;;22.67;52.38;99172.64;109240;1253;73109;-39
2023/08/08 10:24:09;;;;;;;2.50;1.30;;;;;;;22.65;52.22;99175.25;109098;1253;58819;-39
2023/08/08 10:27:00;;;;;;;1.50;1.40;;;;;;;22.69;52.87;99169.61;109229;1253;58767;-39
2023/08/08 10:29:29;;;;;;;4.20;1.30;;;;;;;22.83;51.93;99170.97;107870;1254;72557;-39
2023/08/08 10:32:03;;;;;;;2.40;1.30;;;;;;;22.91;51.28;99166.98;107474;1253;68318;-38
2023/08/08 10:34:41;;;;;;;1.40;1.20;;;;;;;22.97;50.82;99173.48;107482;1253;71383;-39
2023/08/08 10:37:13;;;;;;;2.30;1.20;;;;;;;23.03;50.77;99177.08;107477;1253;60434;-39
2023/08/08 10:39:54;;;;;;;1.30;1.20;;;;;;;23.02;49.50;99180.65;107478;1253;60309;-39
2023/08/08 10:42:23;;;;;;;1.30;1.20;;;;;;;22.99;49.84;99185.36;107489;1253;73866;-39
2023/08/08 10:44:54;;;;;;;2.80;1.40;;;;;;;22.93;50.42;99185.55;107508;1253;66451;-39
2023/08/08 10:47:27;;;;;;;2.20;1.20;;;;;;;22.91;49.90;99187.35;107453;1254;72676;-38
2023/08/08 10:50:09;;;;;;;1.70;1.40;;;;;;;22.92;49.85;99185.48;107441;1253;60396;-39
2023/08/08 10:52:49;;;;;;;1.60;1.20;;;;;;;22.97;50.20;99182.73;107467;1253;60271;-39
2023/08/08 10:55:21;;;;;;;1.70;1.10;;;;;;;23.01;49.59;99184.51;107454;1253;72088;-39
2023/08/08 10:57:59;;;;;;;4.20;1.20;;;;;;;22.99;49.43;99186.31;107485;1253;66937;-39
2023/08/08 11:00:29;;;;;;;3.90;1.20;;;;;;;22.97;48.68;99187.40;107523;1253;72668;-38
2023/08/08 11:02:57;;;;;;;1.00;0.90;;;;;;;22.98;48.96;99189.50;107450;1257;59648;-38
2023/08/08 11:05:28;;;;;;;1.30;1.10;;;;;;;23.03;47.94;99188.16;107549;1253;60498;-39
2023/08/08 11:07:56;;;;;;;1.50;1.20;;;;;;;23.06;47.25;99185.42;107539;1253;72652;-39
2023/08/08 11:10:23;;;;;;;1.50;1.30;;;;;;;23.08;48.29;99184.11;107449;1258;66630;-39
2023/08/08 11:12:59;;;;;;;1.20;1.10;;;;;;;23.18;48.69;99183.43;107455;1253;71159;-39
2023/08/08 11:15:27;;;;;;;2.90;1.20;;;;;;;23.36;47.87;99180.88;107390;1253;60368;-39
2023/08/08 11:17:55;;;;;;;2.00;1.10;;;;;;;23.60;47.43;99173.88;107522;1254;60528;-39
2023/08/08 11:20:23;;;;;;;1.50;1.10;;;;;;;23.86;46.64;99171.23;107420;1253;73911;-39
2023/08/08 11:22:55;;;;;;;1.30;1.20;;;;;;;24.13;45.57;99168.22;107462;1253;66725;-39
2023/08/08 11:25:25;;;;;;;1.80;1.30;;;;;;;24.33;44.95;99164.49;107512;1253;72754;-39
2023/08/08 11:27:53;;;;;;;1.40;1.30;;;;;;;24.41;45.01;99160.39;107439;1253;60448;-39
2023/08/08 11:30:22;;;;;;;2.90;1.50;;;;;;;24.43;44.97;99156.73;107492;1257;60498;-39
2023/08/08 11:32:50;;;;;;;1.70;1.40;;;;;;;24.39;45.06;99152.88;107433;1253;73837;-39